createdAt,value
2018-01-24T00:00:41.676Z,0.00
2018-01-24T00:01:41.598Z,0.00
2018-01-24T00:03:33.590Z,0.00
2018-01-24T00:04:33.520Z,0.00
2018-01-24T00:06:25.534Z,0.00
2018-01-24T00:07:25.452Z,0.00
2018-01-24T00:09:17.452Z,0.00
2018-01-24T00:10:17.385Z,0.00
2018-01-24T00:12:09.383Z,0.00
2018-01-24T00:13:09.305Z,0.00
2018-01-24T00:15:01.337Z,0.00
2018-01-24T00:16:01.265Z,0.00
2018-01-24T00:17:53.269Z,0.00
2018-01-24T00:18:53.185Z,0.00
2018-01-24T00:20:45.183Z,0.00
2018-01-24T00:21:45.100Z,0.00
2018-01-24T00:23:37.104Z,0.00
2018-01-24T00:24:37.031Z,0.00
2018-01-24T00:26:29.046Z,0.00
2018-01-24T00:27:28.965Z,0.00
2018-01-24T00:29:20.960Z,0.00
2018-01-24T00:30:20.891Z,0.00
2018-01-24T00:32:12.916Z,0.00
2018-01-24T00:33:12.830Z,0.00
2018-01-24T00:35:04.826Z,0.00
2018-01-24T00:36:04.752Z,0.00
2018-01-24T00:37:56.763Z,0.00
2018-01-24T00:38:56.674Z,0.00
2018-01-24T00:40:48.661Z,0.00
2018-01-24T00:41:48.596Z,0.00
2018-01-24T00:43:40.590Z,0.00
2018-01-24T00:44:40.519Z,0.00
2018-01-24T00:46:32.496Z,0.00
2018-01-24T00:47:32.426Z,0.00
2018-01-24T00:49:24.420Z,0.00
2018-01-24T00:50:24.341Z,0.00
2018-01-24T00:52:16.333Z,0.00
2018-01-24T00:53:16.266Z,0.00
2018-01-24T00:55:08.271Z,0.00
2018-01-24T00:56:08.190Z,0.00
2018-01-24T00:58:00.195Z,0.00
2018-01-24T00:59:00.109Z,0.00
2018-01-24T01:00:52.102Z,0.00
2018-01-24T01:01:52.032Z,0.00
2018-01-24T01:03:44.046Z,0.00
2018-01-24T01:04:43.961Z,0.00
2018-01-24T01:06:35.961Z,0.00
2018-01-24T01:07:35.894Z,0.00
2018-01-24T01:09:27.911Z,0.00
2018-01-24T01:10:27.817Z,0.00
2018-01-24T01:12:19.802Z,0.00
2018-01-24T01:13:19.733Z,0.00
2018-01-24T01:15:11.738Z,0.00
2018-01-24T01:16:11.651Z,0.00
2018-01-24T01:18:03.642Z,0.00
2018-01-24T01:19:03.574Z,0.00
2018-01-24T01:20:55.590Z,0.00
2018-01-24T01:21:55.505Z,0.00
2018-01-24T01:23:47.495Z,0.00
2018-01-24T01:24:47.431Z,0.00
2018-01-24T01:26:39.446Z,0.00
2018-01-24T01:27:39.364Z,0.00
2018-01-24T01:29:31.366Z,0.00
2018-01-24T01:30:31.303Z,0.00
2018-01-24T01:32:23.306Z,0.00
2018-01-24T01:33:23.226Z,0.00
2018-01-24T01:35:15.228Z,0.00
2018-01-24T01:36:15.146Z,0.00
2018-01-24T01:38:07.139Z,0.00
2018-01-24T01:39:07.065Z,0.00
2018-01-24T01:40:59.065Z,0.00
2018-01-24T01:41:58.978Z,0.00
2018-01-24T01:43:50.966Z,0.00
2018-01-24T01:44:50.902Z,0.00
2018-01-24T01:46:42.913Z,0.00
2018-01-24T01:47:42.836Z,0.00
2018-01-24T01:49:34.825Z,0.00
2018-01-24T01:50:34.754Z,0.00
2018-01-24T01:52:26.756Z,0.00
2018-01-24T01:53:26.675Z,0.00
2018-01-24T01:55:18.681Z,0.00
2018-01-24T01:56:18.596Z,0.00
2018-01-24T01:58:10.631Z,0.00
2018-01-24T01:59:10.542Z,0.00
2018-01-24T02:01:02.522Z,0.00
2018-01-24T02:02:02.455Z,0.00
2018-01-24T02:03:54.477Z,0.00
2018-01-24T02:04:54.380Z,0.00
2018-01-24T02:06:46.390Z,0.00
2018-01-24T02:07:46.299Z,0.00
2018-01-24T02:09:38.281Z,0.00
2018-01-24T02:10:38.212Z,0.00
2018-01-24T02:12:30.216Z,0.00
2018-01-24T02:13:30.133Z,0.00
2018-01-24T02:15:22.124Z,0.00
2018-01-24T02:16:22.057Z,0.00
2018-01-24T02:18:14.073Z,0.00
2018-01-24T02:19:13.987Z,0.00
2018-01-24T02:21:05.975Z,0.00
2018-01-24T02:22:05.905Z,0.00
2018-01-24T02:23:57.922Z,0.00
2018-01-24T02:24:57.839Z,0.00
2018-01-24T02:26:49.827Z,0.00
2018-01-24T02:27:49.759Z,0.00
2018-01-24T02:29:41.783Z,0.00
2018-01-24T02:30:41.687Z,0.00
2018-01-24T02:32:33.688Z,0.00
2018-01-24T02:33:33.621Z,0.00
2018-01-24T02:35:25.631Z,0.00
2018-01-24T02:36:25.540Z,0.00
2018-01-24T02:38:17.549Z,0.00
2018-01-24T02:39:17.470Z,0.00
2018-01-24T02:41:09.477Z,0.00
2018-01-24T02:42:09.396Z,0.00
2018-01-24T02:44:01.409Z,0.00
2018-01-24T02:45:01.325Z,0.00
2018-01-24T02:46:53.330Z,0.00
2018-01-24T02:47:53.254Z,0.00
2018-01-24T02:49:45.292Z,0.00
2018-01-24T02:50:45.209Z,0.00
2018-01-24T02:52:37.208Z,0.00
2018-01-24T02:53:37.139Z,0.00
2018-01-24T02:55:29.159Z,0.00
2018-01-24T02:56:29.068Z,0.00
2018-01-24T02:58:21.065Z,0.00
2018-01-24T02:59:20.997Z,0.00
2018-01-24T03:01:13.028Z,0.00
2018-01-24T03:02:12.928Z,0.00
2018-01-24T03:04:04.947Z,0.00
2018-01-24T03:05:04.862Z,0.00
2018-01-24T03:06:56.875Z,0.00
2018-01-24T03:07:56.780Z,0.00
2018-01-24T03:09:48.792Z,0.00
2018-01-24T03:10:48.724Z,0.00
2018-01-24T03:12:40.742Z,0.00
2018-01-24T03:13:40.651Z,0.00
2018-01-24T03:15:32.672Z,0.00
2018-01-24T03:16:32.586Z,0.00
2018-01-24T03:18:24.593Z,0.00
2018-01-24T03:19:24.514Z,0.00
2018-01-24T03:21:16.891Z,0.00
2018-01-24T03:22:16.443Z,0.00
2018-01-24T03:24:08.828Z,0.00
2018-01-24T03:25:08.367Z,0.00
2018-01-24T03:27:00.377Z,0.00
2018-01-24T03:28:00.290Z,0.00
2018-01-24T03:29:52.287Z,0.00
2018-01-24T03:30:52.221Z,0.00
2018-01-24T03:32:44.245Z,0.00
2018-01-24T03:33:44.163Z,0.00
2018-01-24T03:35:36.147Z,0.00
2018-01-24T03:36:36.081Z,0.00
2018-01-24T03:38:28.100Z,0.00
2018-01-24T03:39:28.011Z,0.00
2018-01-24T03:41:20.019Z,0.00
2018-01-24T03:42:19.940Z,0.00
2018-01-24T03:44:11.932Z,0.00
2018-01-24T03:45:11.863Z,0.00
2018-01-24T03:47:03.871Z,0.00
2018-01-24T03:48:03.788Z,0.00
2018-01-24T03:49:55.769Z,0.00
2018-01-24T03:50:55.702Z,0.00
2018-01-24T03:52:47.706Z,0.00
2018-01-24T03:53:47.636Z,0.00
2018-01-24T03:55:39.630Z,0.00
2018-01-24T03:56:39.557Z,0.00
2018-01-24T03:58:31.564Z,0.00
2018-01-24T03:59:31.482Z,0.00
2018-01-24T04:01:23.479Z,0.00
2018-01-24T04:02:23.406Z,0.00
2018-01-24T04:04:15.420Z,0.00
2018-01-24T04:05:15.337Z,0.00
2018-01-24T04:07:07.335Z,0.00
2018-01-24T04:08:07.354Z,0.00
2018-01-24T04:09:59.278Z,0.00
2018-01-24T04:10:59.200Z,0.00
2018-01-24T04:12:51.207Z,0.00
2018-01-24T04:13:51.129Z,0.00
2018-01-24T04:15:43.146Z,0.00
2018-01-24T04:16:43.066Z,0.00
2018-01-24T04:18:35.079Z,0.00
2018-01-24T04:19:34.996Z,0.00
2018-01-24T04:21:27.001Z,0.00
2018-01-24T04:22:26.926Z,0.00
2018-01-24T04:24:18.941Z,0.00
2018-01-24T04:25:18.856Z,0.00
2018-01-24T04:27:10.850Z,0.00
2018-01-24T04:28:10.779Z,0.00
2018-01-24T04:30:02.806Z,0.00
2018-01-24T04:31:02.703Z,0.00
2018-01-24T04:32:54.692Z,0.00
2018-01-24T04:33:54.622Z,0.00
2018-01-24T04:35:46.668Z,0.00
2018-01-24T04:36:46.549Z,0.00
2018-01-24T04:38:38.544Z,0.00
2018-01-24T04:39:38.468Z,0.00
2018-01-24T04:41:30.526Z,0.00
2018-01-24T04:42:30.445Z,0.00
2018-01-24T04:44:22.451Z,0.00
2018-01-24T04:45:22.368Z,0.00
2018-01-24T04:47:14.359Z,0.00
2018-01-24T04:48:14.292Z,0.00
2018-01-24T04:50:06.294Z,0.00
2018-01-24T04:51:06.214Z,0.00
2018-01-24T04:52:58.240Z,0.00
2018-01-24T04:53:58.161Z,0.00
2018-01-24T04:55:50.169Z,0.00
2018-01-24T04:56:50.092Z,0.00
2018-01-24T04:58:42.087Z,0.00
2018-01-24T04:59:42.017Z,0.00
2018-01-24T05:01:34.024Z,0.00
2018-01-24T05:02:33.950Z,0.00
2018-01-24T05:04:25.927Z,0.00
2018-01-24T05:05:25.860Z,0.00
2018-01-24T05:07:17.874Z,0.00
2018-01-24T05:08:17.794Z,0.00
2018-01-24T05:10:09.798Z,0.00
2018-01-24T05:11:09.725Z,0.00
2018-01-24T05:13:01.701Z,0.00
2018-01-24T05:14:01.634Z,0.00
2018-01-24T05:15:53.663Z,0.00
2018-01-24T05:16:53.586Z,0.00
2018-01-24T05:18:45.597Z,0.00
2018-01-24T05:19:45.529Z,0.00
2018-01-24T05:21:37.548Z,0.00
2018-01-24T05:22:37.470Z,0.00
2018-01-24T05:24:29.520Z,0.00
2018-01-24T05:25:29.456Z,0.00
2018-01-24T05:27:21.501Z,0.00
2018-01-24T05:28:21.424Z,0.00
2018-01-24T05:30:13.404Z,0.00
2018-01-24T05:31:13.340Z,0.00
2018-01-24T05:33:05.351Z,0.00
2018-01-24T05:34:05.276Z,0.00
2018-01-24T05:35:57.305Z,0.00
2018-01-24T05:36:57.227Z,0.00
2018-01-24T05:38:49.221Z,0.00
2018-01-24T05:39:49.157Z,0.00
2018-01-24T05:41:41.249Z,0.00
2018-01-24T05:42:41.171Z,0.00
2018-01-24T05:44:33.194Z,0.00
2018-01-24T05:45:33.119Z,0.00
2018-01-24T05:47:25.116Z,0.00
2018-01-24T05:48:25.041Z,0.00
2018-01-24T05:50:17.025Z,0.00
2018-01-24T05:51:16.960Z,0.00
2018-01-24T05:53:08.988Z,0.00
2018-01-24T05:54:08.909Z,0.00
2018-01-24T05:56:00.911Z,0.00
2018-01-24T05:57:00.837Z,0.00
2018-01-24T05:58:52.846Z,0.00
2018-01-24T05:59:52.770Z,0.00
2018-01-24T06:01:44.791Z,0.00
2018-01-24T06:02:44.697Z,0.00
2018-01-24T06:04:36.714Z,0.00
2018-01-24T06:05:36.647Z,0.00
2018-01-24T06:07:28.634Z,0.00
2018-01-24T06:08:28.557Z,0.00
2018-01-24T06:10:20.548Z,0.00
2018-01-24T06:11:20.477Z,0.00
2018-01-24T06:13:12.471Z,0.00
2018-01-24T06:14:12.398Z,0.00
2018-01-24T06:16:04.398Z,0.00
2018-01-24T06:17:04.323Z,0.00
2018-01-24T06:18:56.332Z,0.00
2018-01-24T06:19:56.264Z,0.00
2018-01-24T06:21:48.264Z,0.00
2018-01-24T06:22:48.196Z,0.00
2018-01-24T06:24:40.193Z,0.00
2018-01-24T06:25:40.117Z,0.00
2018-01-24T06:27:32.115Z,0.00
2018-01-24T06:28:32.040Z,0.00
2018-01-24T06:30:24.042Z,0.00
2018-01-24T06:31:23.964Z,0.00
2018-01-24T06:33:15.955Z,0.00
2018-01-24T06:34:15.879Z,0.00
2018-01-24T06:36:07.902Z,0.00
2018-01-24T06:37:07.833Z,0.00
2018-01-24T06:38:59.838Z,4.00
2018-01-24T06:39:59.763Z,4.00
2018-01-24T06:41:51.744Z,4.00
2018-01-24T06:42:51.676Z,8.00
2018-01-24T06:44:43.675Z,4.00
2018-01-24T06:45:43.601Z,8.00
2018-01-24T06:47:35.582Z,12.00
2018-01-24T06:48:35.516Z,16.00
2018-01-24T06:50:27.510Z,20.00
2018-01-24T06:51:27.432Z,24.00
2018-01-24T06:53:19.429Z,20.00
2018-01-24T06:54:19.360Z,20.00
2018-01-24T06:56:11.418Z,28.00
2018-01-24T06:57:11.339Z,32.00
2018-01-24T06:59:03.339Z,32.00
2018-01-24T07:00:03.275Z,40.00
2018-01-24T07:01:55.284Z,48.00
2018-01-24T07:02:55.229Z,56.00
2018-01-24T07:04:47.235Z,60.00
2018-01-24T07:05:47.168Z,80.00
2018-01-24T07:07:39.181Z,96.00
2018-01-24T07:08:39.099Z,96.00
2018-01-24T07:10:31.092Z,108.00
2018-01-24T07:11:31.032Z,124.00
2018-01-24T07:13:23.062Z,132.00
2018-01-24T07:14:22.934Z,136.00
2018-01-24T07:16:14.932Z,196.00
2018-01-24T07:17:14.890Z,204.00
2018-01-24T07:19:06.915Z,236.00
2018-01-24T07:20:06.783Z,244.00
2018-01-24T07:21:58.826Z,272.00
2018-01-24T07:22:58.746Z,300.00
2018-01-24T07:24:50.740Z,352.00
2018-01-24T07:25:50.670Z,432.00
2018-01-24T07:27:42.702Z,404.00
2018-01-24T07:28:42.591Z,420.00
2018-01-24T07:30:34.575Z,432.00
2018-01-24T07:31:34.509Z,340.00
2018-01-24T07:33:26.515Z,448.00
2018-01-24T07:34:26.433Z,508.00
2018-01-24T07:36:18.446Z,668.00
2018-01-24T07:37:18.365Z,772.00
2018-01-24T07:39:10.361Z,820.00
2018-01-24T07:40:10.344Z,860.00
2018-01-24T07:42:02.319Z,1012.00
2018-01-24T07:43:02.263Z,1112.00
2018-01-24T07:44:54.225Z,1192.00
2018-01-24T07:45:54.159Z,1164.00
2018-01-24T07:47:46.180Z,1048.00
2018-01-24T07:48:46.108Z,992.00
2018-01-24T07:50:38.089Z,892.00
2018-01-24T07:51:38.023Z,836.00
2018-01-24T07:53:30.024Z,664.00
2018-01-24T07:54:29.947Z,588.00
2018-01-24T07:56:21.969Z,616.00
2018-01-24T07:57:21.904Z,644.00
2018-01-24T07:59:13.902Z,756.00
2018-01-24T08:00:13.870Z,696.00
2018-01-24T08:02:05.934Z,812.00
2018-01-24T08:03:05.893Z,892.00
2018-01-24T08:04:57.877Z,1044.00
2018-01-24T08:05:57.798Z,1212.00
2018-01-24T08:07:49.782Z,1364.00
2018-01-24T08:08:49.717Z,1380.00
2018-01-24T08:10:41.797Z,1844.00
2018-01-24T08:11:41.688Z,2072.00
2018-01-24T08:13:33.680Z,3248.00
2018-01-24T08:14:33.602Z,3764.00
2018-01-24T08:16:25.585Z,4900.00
2018-01-24T08:17:25.533Z,4824.00
2018-01-24T08:19:17.519Z,6052.00
2018-01-24T08:20:17.451Z,6568.00
2018-01-24T08:22:09.452Z,7308.00
2018-01-24T08:23:09.369Z,7100.00
2018-01-24T08:25:01.797Z,8440.00
2018-01-24T08:26:01.372Z,9752.00
2018-01-24T08:27:53.337Z,13488.00
2018-01-24T08:28:53.275Z,11940.00
2018-01-24T08:30:45.473Z,17184.00
2018-01-24T08:31:45.286Z,16128.00
2018-01-24T08:33:37.298Z,16864.00
2018-01-24T08:34:37.232Z,14400.00
2018-01-24T08:36:29.304Z,15072.00
2018-01-24T08:37:29.229Z,22240.00
2018-01-24T08:39:21.281Z,16064.00
2018-01-24T08:40:21.205Z,11020.00
2018-01-24T08:42:13.193Z,11700.00
2018-01-24T08:43:13.127Z,11368.00
2018-01-24T08:45:05.132Z,10616.00
2018-01-24T08:46:05.058Z,10676.00
2018-01-24T08:47:57.126Z,10700.00
2018-01-24T08:48:57.024Z,10908.00
2018-01-24T08:50:49.080Z,11024.00
2018-01-24T08:51:48.954Z,11384.00
2018-01-24T08:53:40.942Z,11816.00
2018-01-24T08:54:40.885Z,13096.00
2018-01-24T08:56:33.293Z,13288.00
2018-01-24T08:57:32.847Z,13056.00
2018-01-24T08:59:24.926Z,10968.00
2018-01-24T09:00:24.864Z,10524.00
2018-01-24T09:02:16.884Z,11516.00
2018-01-24T09:03:16.845Z,11964.00
2018-01-24T09:05:08.895Z,13136.00
2018-01-24T09:06:08.750Z,13840.00
2018-01-24T09:08:00.753Z,16768.00
2018-01-24T09:09:00.692Z,17184.00
2018-01-24T09:10:52.719Z,17312.00
2018-01-24T09:11:52.632Z,16992.00
2018-01-24T09:13:44.667Z,10192.00
2018-01-24T09:14:44.614Z,10096.00
2018-01-24T09:16:36.650Z,12192.00
2018-01-24T09:17:36.567Z,20000.00
2018-01-24T09:19:28.612Z,16704.00
2018-01-24T09:20:28.541Z,26816.00
2018-01-24T09:22:20.583Z,25728.00
2018-01-24T09:23:20.508Z,28224.00
2018-01-24T09:25:12.522Z,29024.00
2018-01-24T09:26:12.444Z,27136.00
2018-01-24T09:28:04.479Z,26592.00
2018-01-24T09:29:04.441Z,27616.00
2018-01-24T09:30:56.421Z,20128.00
2018-01-24T09:31:56.468Z,16704.00
2018-01-24T09:33:48.411Z,19648.00
2018-01-24T09:34:48.387Z,19456.00
2018-01-24T09:36:40.363Z,34688.00
2018-01-24T09:37:40.266Z,38080.00
2018-01-24T09:39:32.318Z,41312.00
2018-01-24T09:40:32.233Z,33568.00
2018-01-24T09:42:24.273Z,30528.00
2018-01-24T09:43:24.198Z,32192.00
2018-01-24T09:45:16.232Z,29280.00
2018-01-24T09:46:16.152Z,23968.00
2018-01-24T09:48:08.208Z,15520.00
2018-01-24T09:49:08.107Z,14944.00
2018-01-24T09:51:00.136Z,13828.00
2018-01-24T09:52:00.056Z,14052.00
2018-01-24T09:53:52.090Z,12908.00
2018-01-24T09:54:52.014Z,11104.00
2018-01-24T09:56:44.133Z,10276.00
2018-01-24T09:57:43.994Z,9440.00
2018-01-24T09:59:36.006Z,10028.00
2018-01-24T10:00:35.957Z,10148.00
2018-01-24T10:02:27.962Z,9720.00
2018-01-24T10:03:27.894Z,9484.00
2018-01-24T10:05:19.935Z,9236.00
2018-01-24T10:06:19.871Z,8976.00
2018-01-24T10:08:11.964Z,9032.00
2018-01-24T10:09:11.829Z,9004.00
2018-01-24T10:11:03.889Z,10948.00
2018-01-24T10:12:03.822Z,19328.00
2018-01-24T10:13:55.858Z,22400.00
2018-01-24T10:14:55.765Z,23200.00
2018-01-24T10:16:47.863Z,22496.00
2018-01-24T10:17:47.805Z,27840.00
2018-01-24T10:19:39.835Z,36576.00
2018-01-24T10:20:39.744Z,45920.00
2018-01-24T10:22:31.831Z,50912.00
2018-01-24T10:23:31.779Z,48800.00
2018-01-24T10:25:23.828Z,60928.00
2018-01-24T10:26:23.744Z,62560.00
2018-01-24T10:28:15.787Z,68608.00
2018-01-24T10:29:15.729Z,74048.00
2018-01-24T10:31:07.728Z,78240.00
2018-01-24T10:32:07.652Z,74560.00
2018-01-24T10:33:59.698Z,79712.00
2018-01-24T10:34:59.625Z,80960.00
2018-01-24T10:36:51.720Z,81472.00
2018-01-24T10:37:51.601Z,79296.00
2018-01-24T10:39:43.636Z,80544.00
2018-01-24T10:40:43.590Z,78944.00
2018-01-24T10:42:35.622Z,77088.00
2018-01-24T10:43:35.614Z,77472.00
2018-01-24T10:45:27.727Z,68384.00
2018-01-24T10:46:27.561Z,79328.00
2018-01-24T10:48:19.625Z,80224.00
2018-01-24T10:49:19.533Z,74688.00
2018-01-24T10:51:11.586Z,53696.00
2018-01-24T10:52:11.532Z,67392.00
2018-01-24T10:54:03.667Z,60160.00
2018-01-24T10:55:03.598Z,47584.00
2018-01-24T10:56:55.646Z,31136.00
2018-01-24T10:57:55.603Z,55104.00
2018-01-24T10:59:47.658Z,54816.00
2018-01-24T11:00:47.564Z,54656.00
2018-01-24T11:02:39.602Z,14376.00
2018-01-24T11:03:39.540Z,9856.00
2018-01-24T11:05:31.594Z,11524.00
2018-01-24T11:06:31.500Z,9284.00
2018-01-24T11:08:23.563Z,6536.00
2018-01-24T11:09:23.508Z,5824.00
2018-01-24T11:11:15.533Z,5548.00
2018-01-24T11:12:15.454Z,4968.00
2018-01-24T11:14:07.532Z,4392.00
2018-01-24T11:15:07.435Z,4364.00
2018-01-24T11:16:59.468Z,3884.00
2018-01-24T11:17:59.403Z,3800.00
2018-01-24T11:19:51.446Z,3736.00
2018-01-24T11:20:51.380Z,3728.00
2018-01-24T11:22:43.375Z,3864.00
2018-01-24T11:23:43.314Z,3868.00
2018-01-24T11:25:35.378Z,3596.00
2018-01-24T11:26:35.265Z,3588.00
2018-01-24T11:28:27.316Z,3820.00
2018-01-24T11:29:27.240Z,3944.00
2018-01-24T11:31:19.265Z,4156.00
2018-01-24T11:32:19.220Z,3752.00
2018-01-24T11:34:11.239Z,4360.00
2018-01-24T11:35:11.184Z,4008.00
2018-01-24T11:37:03.182Z,3724.00
2018-01-24T11:38:03.099Z,3668.00
2018-01-24T11:39:55.340Z,4424.00
2018-01-24T11:40:55.111Z,3916.00
2018-01-24T11:42:47.163Z,4356.00
2018-01-24T11:43:47.114Z,4508.00
2018-01-24T11:45:39.119Z,4560.00
2018-01-24T11:46:39.066Z,4820.00
2018-01-24T11:48:31.097Z,4636.00
2018-01-24T11:49:31.037Z,4812.00
2018-01-24T11:51:23.065Z,4460.00
2018-01-24T11:52:23.052Z,4736.00
2018-01-24T11:54:14.988Z,4468.00
2018-01-24T11:55:14.930Z,3436.00
2018-01-24T11:57:06.976Z,4424.00
2018-01-24T11:58:06.904Z,3788.00
2018-01-24T11:59:58.892Z,3420.00
2018-01-24T12:00:58.824Z,3504.00
2018-01-24T12:02:50.885Z,4464.00
2018-01-24T12:03:50.791Z,4996.00
2018-01-24T12:05:42.814Z,4776.00
2018-01-24T12:06:42.745Z,4576.00
2018-01-24T12:08:34.790Z,4148.00
2018-01-24T12:09:34.746Z,4344.00
2018-01-24T12:11:26.753Z,5692.00
2018-01-24T12:12:26.701Z,5924.00
2018-01-24T12:14:18.777Z,6156.00
2018-01-24T12:15:18.709Z,6076.00
2018-01-24T12:17:10.667Z,5824.00
2018-01-24T12:18:10.589Z,5364.00
2018-01-24T12:20:02.600Z,4880.00
2018-01-24T12:21:02.663Z,4616.00
2018-01-24T12:22:54.621Z,4268.00
2018-01-24T12:23:54.560Z,3728.00
2018-01-24T12:25:46.568Z,4008.00
2018-01-24T12:26:46.456Z,4512.00
2018-01-24T12:28:38.467Z,4556.00
2018-01-24T12:29:38.409Z,4172.00
2018-01-24T12:31:30.488Z,3604.00
2018-01-24T12:32:30.375Z,3512.00
2018-01-24T12:34:22.407Z,5008.00
2018-01-24T12:35:22.337Z,5716.00
2018-01-24T12:37:14.480Z,6100.00
2018-01-24T12:38:14.277Z,6268.00
2018-01-24T12:40:06.329Z,6512.00
2018-01-24T12:41:06.216Z,6480.00
2018-01-24T12:42:58.229Z,6512.00
2018-01-24T12:43:58.170Z,6612.00
2018-01-24T12:45:50.235Z,6848.00
2018-01-24T12:46:50.207Z,6800.00
2018-01-24T12:48:42.175Z,6604.00
2018-01-24T12:49:42.092Z,6128.00
2018-01-24T12:51:34.075Z,6148.00
2018-01-24T12:52:34.011Z,6080.00
2018-01-24T12:54:26.062Z,6128.00
2018-01-24T12:55:26.051Z,5968.00
2018-01-24T12:57:18.010Z,5084.00
2018-01-24T12:58:17.897Z,4728.00
2018-01-24T13:00:09.930Z,4648.00
2018-01-24T13:01:09.840Z,4896.00
2018-01-24T13:03:01.869Z,4952.00
2018-01-24T13:04:01.809Z,4724.00
2018-01-24T13:05:53.873Z,4124.00
2018-01-24T13:06:53.796Z,3920.00
2018-01-24T13:08:45.871Z,3724.00
2018-01-24T13:09:45.722Z,3108.00
2018-01-24T13:11:37.782Z,3360.00
2018-01-24T13:12:37.708Z,3824.00
2018-01-24T13:14:29.799Z,4404.00
2018-01-24T13:15:29.645Z,4484.00
2018-01-24T13:17:21.736Z,4420.00
2018-01-24T13:18:21.666Z,4320.00
2018-01-24T13:20:13.751Z,4132.00
2018-01-24T13:21:13.673Z,4312.00
2018-01-24T13:23:05.685Z,4512.00
2018-01-24T13:24:05.630Z,4516.00
2018-01-24T13:25:57.672Z,4452.00
2018-01-24T13:26:57.563Z,4336.00
2018-01-24T13:28:49.551Z,3852.00
2018-01-24T13:29:49.505Z,3564.00
2018-01-24T13:31:41.505Z,3464.00
2018-01-24T13:32:41.407Z,3620.00
2018-01-24T13:34:33.419Z,2900.00
2018-01-24T13:35:33.356Z,2912.00
2018-01-24T13:37:25.424Z,2604.00
2018-01-24T13:38:25.292Z,2452.00
2018-01-24T13:40:17.357Z,2000.00
2018-01-24T13:41:17.261Z,1880.00
2018-01-24T13:43:09.312Z,1880.00
2018-01-24T13:44:09.229Z,1800.00
2018-01-24T13:46:01.279Z,1820.00
2018-01-24T13:47:01.181Z,2132.00
2018-01-24T13:48:53.208Z,2312.00
2018-01-24T13:49:53.145Z,2080.00
2018-01-24T13:51:45.176Z,2108.00
2018-01-24T13:52:45.095Z,2024.00
2018-01-24T13:54:37.093Z,1884.00
2018-01-24T13:55:37.073Z,1800.00
2018-01-24T13:57:29.052Z,1868.00
2018-01-24T13:58:28.973Z,1676.00
2018-01-24T14:00:21.009Z,1516.00
2018-01-24T14:01:20.915Z,1488.00
2018-01-24T14:03:12.928Z,1308.00
2018-01-24T14:04:12.846Z,1348.00
2018-01-24T14:06:04.879Z,1320.00
2018-01-24T14:07:04.818Z,1368.00
2018-01-24T14:08:56.852Z,1272.00
2018-01-24T14:09:56.758Z,1284.00
2018-01-24T14:11:48.866Z,1348.00
2018-01-24T14:12:48.810Z,1332.00
2018-01-24T14:14:40.810Z,1304.00
2018-01-24T14:15:40.736Z,1240.00
2018-01-24T14:17:32.866Z,1152.00
2018-01-24T14:18:32.765Z,1196.00
2018-01-24T14:20:24.791Z,1128.00
2018-01-24T14:21:24.711Z,1140.00
2018-01-24T14:23:16.724Z,1104.00
2018-01-24T14:24:16.639Z,1148.00
2018-01-24T14:26:08.679Z,1244.00
2018-01-24T14:27:08.586Z,1216.00
2018-01-24T14:29:00.646Z,1028.00
2018-01-24T14:30:00.570Z,1040.00
2018-01-24T14:31:52.620Z,1096.00
2018-01-24T14:32:52.499Z,1152.00
2018-01-24T14:34:44.512Z,1108.00
2018-01-24T14:35:44.443Z,1140.00
2018-01-24T14:37:36.469Z,1100.00
2018-01-24T14:38:36.389Z,1084.00
2018-01-24T14:40:28.457Z,1020.00
2018-01-24T14:41:28.372Z,1020.00
2018-01-24T14:43:20.382Z,948.00
2018-01-24T14:44:20.318Z,964.00
2018-01-24T14:46:12.356Z,852.00
2018-01-24T14:47:12.261Z,864.00
2018-01-24T14:49:04.267Z,824.00
2018-01-24T14:50:04.184Z,792.00
2018-01-24T14:51:56.206Z,832.00
2018-01-24T14:52:56.123Z,784.00
2018-01-24T14:54:48.185Z,784.00
2018-01-24T14:55:48.087Z,740.00
2018-01-24T14:57:40.136Z,756.00
2018-01-24T14:58:40.066Z,784.00
2018-01-24T15:00:32.079Z,852.00
2018-01-24T15:01:32.009Z,856.00
2018-01-24T15:03:24.029Z,816.00
2018-01-24T15:04:23.971Z,804.00
2018-01-24T15:06:15.974Z,796.00
2018-01-24T15:07:15.901Z,780.00
2018-01-24T15:09:07.961Z,720.00
2018-01-24T15:10:07.826Z,680.00
2018-01-24T15:11:59.951Z,612.00
2018-01-24T15:12:59.882Z,572.00
2018-01-24T15:14:51.885Z,504.00
2018-01-24T15:15:51.855Z,472.00
2018-01-24T15:17:43.878Z,420.00
2018-01-24T15:18:43.791Z,388.00
2018-01-24T15:20:35.821Z,340.00
2018-01-24T15:21:35.738Z,316.00
2018-01-24T15:23:27.730Z,280.00
2018-01-24T15:24:27.722Z,264.00
2018-01-24T15:26:19.689Z,236.00
2018-01-24T15:27:19.580Z,220.00
2018-01-24T15:29:11.672Z,196.00
2018-01-24T15:30:11.531Z,184.00
2018-01-24T15:32:03.578Z,160.00
2018-01-24T15:33:03.590Z,148.00
2018-01-24T15:34:55.611Z,132.00
2018-01-24T15:35:55.465Z,120.00
2018-01-24T15:37:47.507Z,108.00
2018-01-24T15:38:47.427Z,100.00
2018-01-24T15:40:39.467Z,84.00
2018-01-24T15:41:39.422Z,76.00
2018-01-24T15:43:31.448Z,64.00
2018-01-24T15:44:31.344Z,56.00
2018-01-24T15:46:23.366Z,48.00
2018-01-24T15:47:23.293Z,44.00
2018-01-24T15:49:15.314Z,36.00
2018-01-24T15:50:15.224Z,32.00
2018-01-24T15:52:07.269Z,24.00
2018-01-24T15:53:07.190Z,20.00
2018-01-24T15:54:59.223Z,16.00
2018-01-24T15:55:59.196Z,16.00
2018-01-24T15:57:51.190Z,12.00
2018-01-24T15:58:51.104Z,8.00
2018-01-24T16:00:43.149Z,8.00
2018-01-24T16:01:43.075Z,8.00
2018-01-24T16:03:35.099Z,4.00
2018-01-24T16:04:35.039Z,4.00
2018-01-24T16:06:27.055Z,4.00
2018-01-24T16:07:26.950Z,4.00
2018-01-24T16:09:18.982Z,0.00
2018-01-24T16:10:18.925Z,0.00
2018-01-24T16:12:10.882Z,0.00
2018-01-24T16:13:10.820Z,0.00
2018-01-24T16:15:02.852Z,0.00
2018-01-24T16:16:02.759Z,0.00
2018-01-24T16:17:54.762Z,0.00
2018-01-24T16:18:54.673Z,0.00
2018-01-24T16:20:46.713Z,0.00
2018-01-24T16:21:46.647Z,0.00
2018-01-24T16:23:38.661Z,0.00
2018-01-24T16:24:38.577Z,0.00
2018-01-24T16:26:30.667Z,0.00
2018-01-24T16:27:30.526Z,0.00
2018-01-24T16:29:22.605Z,0.00
2018-01-24T16:30:22.466Z,0.00
2018-01-24T16:32:14.540Z,0.00
2018-01-24T16:33:14.437Z,0.00
2018-01-24T16:35:06.468Z,0.00
2018-01-24T16:36:06.368Z,0.00
2018-01-24T16:37:58.358Z,0.00
2018-01-24T16:38:58.293Z,0.00
2018-01-24T16:40:50.291Z,0.00
2018-01-24T16:41:50.213Z,0.00
2018-01-24T16:43:42.225Z,0.00
2018-01-24T16:44:42.142Z,0.00
2018-01-24T16:46:34.146Z,0.00
2018-01-24T16:47:34.069Z,0.00
2018-01-24T16:49:26.068Z,0.00
2018-01-24T16:50:26.008Z,0.00
2018-01-24T16:52:18.008Z,0.00
2018-01-24T16:53:17.933Z,0.00
2018-01-24T16:55:09.923Z,0.00
2018-01-24T16:56:09.876Z,0.00
2018-01-24T16:58:01.897Z,0.00
2018-01-24T16:59:01.819Z,0.00
2018-01-24T17:00:53.823Z,0.00
2018-01-24T17:01:53.741Z,0.00
2018-01-24T17:03:45.861Z,0.00
2018-01-24T17:04:45.759Z,0.00
2018-01-24T17:06:37.802Z,0.00
2018-01-24T17:07:37.691Z,0.00
2018-01-24T17:09:29.681Z,0.00
2018-01-24T17:10:29.619Z,0.00
2018-01-24T17:12:21.623Z,0.00
2018-01-24T17:13:21.567Z,0.00
2018-01-24T17:15:13.545Z,0.00
2018-01-24T17:16:13.480Z,0.00
2018-01-24T17:18:05.481Z,0.00
2018-01-24T17:19:05.407Z,0.00
2018-01-24T17:20:57.404Z,0.00
2018-01-24T17:21:57.369Z,0.00
2018-01-24T17:23:49.342Z,0.00
2018-01-24T17:24:49.267Z,0.00
2018-01-24T17:26:41.350Z,0.00
2018-01-24T17:27:41.253Z,0.00
2018-01-24T17:29:33.265Z,0.00
2018-01-24T17:30:33.208Z,0.00
2018-01-24T17:32:25.240Z,0.00
2018-01-24T17:33:25.128Z,0.00
2018-01-24T17:35:17.154Z,0.00
2018-01-24T17:36:17.076Z,0.00
2018-01-24T17:38:09.087Z,0.00
2018-01-24T17:39:09.051Z,0.00
2018-01-24T17:41:01.015Z,0.00
2018-01-24T17:42:00.953Z,0.00
2018-01-24T17:43:52.975Z,0.00
2018-01-24T17:44:52.899Z,0.00
2018-01-24T17:46:44.877Z,0.00
2018-01-24T17:47:44.818Z,0.00
2018-01-24T17:49:36.868Z,0.00
2018-01-24T17:50:36.791Z,0.00
2018-01-24T17:52:28.853Z,0.00
2018-01-24T17:53:28.790Z,0.00
2018-01-24T17:55:20.805Z,0.00
2018-01-24T17:56:20.725Z,0.00
2018-01-24T17:58:12.806Z,0.00
2018-01-24T17:59:12.709Z,0.00
2018-01-24T18:01:04.722Z,0.00
2018-01-24T18:02:04.652Z,0.00
2018-01-24T18:03:56.645Z,0.00
2018-01-24T18:04:56.580Z,0.00
2018-01-24T18:06:48.595Z,0.00
2018-01-24T18:07:48.528Z,0.00
2018-01-24T18:09:40.639Z,0.00